KDTL/DTL METAR and TAF weather

Enter ICAO airport designator
Station Type Date Time Source
KDTL METAR 2022/05/23 15:35 UTC NOAA

KDTL 231535Z AUTO 18007G14KT 10SM SCT065 14/M01 A3028 RMK AO2


Station Type Date Time Source
KDTL Decoded METAR 2022/05/23 15:35 UTC NOAA

Detroit Lakes, Detroit Lakes Airport-Wething Field, MN, United States (KDTL) 46-50N 095-53W
May 23, 2022 - 11:35 AM EDT / 2022.05.23 1535 UTC
Wind: from the S (180 degrees) at 8 MPH (7 KT) gusting to 16 MPH (14 KT):0
Visibility: 10 mile(s):0
Sky conditions: partly cloudy
Temperature: 57 F (14 C)
Dew Point: 30 F (-1 C)
Relative Humidity: 35%
Pressure (altimeter): 30.28 in. Hg (1025 hPa)
ob: KDTL 231535Z AUTO 18007G14KT 10SM SCT065 14/M01 A3028 RMK AO2
cycle: 15

Station Type Date Time Source
KDTL TAF UTC NOAA

Error!

Example: see airport list